sensor_id;sensor_type;location;lat;lon;timestamp;P1;durP1;ratioP1;P2;durP2;ratioP2
20541;SDS011;10429;50.956;9.786;2022-10-31T00:01:40;9.37;;;5.77;;
20541;SDS011;10429;50.956;9.786;2022-10-31T00:04:06;11.30;;;6.33;;
20541;SDS011;10429;50.956;9.786;2022-10-31T00:06:32;7.77;;;5.30;;
20541;SDS011;10429;50.956;9.786;2022-10-31T00:08:59;7.77;;;5.90;;
20541;SDS011;10429;50.956;9.786;2022-10-31T00:11:25;9.97;;;4.83;;
20541;SDS011;10429;50.956;9.786;2022-10-31T00:13:52;14.53;;;5.57;;
20541;SDS011;10429;50.956;9.786;2022-10-31T00:16:19;12.63;;;5.87;;
20541;SDS011;10429;50.956;9.786;2022-10-31T00:18:49;13.53;;;5.37;;
20541;SDS011;10429;50.956;9.786;2022-10-31T00:21:17;10.57;;;6.47;;
20541;SDS011;10429;50.956;9.786;2022-10-31T00:23:46;8.10;;;5.53;;
20541;SDS011;10429;50.956;9.786;2022-10-31T00:26:12;9.43;;;5.20;;
20541;SDS011;10429;50.956;9.786;2022-10-31T00:28:38;9.80;;;6.97;;
20541;SDS011;10429;50.956;9.786;2022-10-31T00:31:04;8.73;;;6.40;;
20541;SDS011;10429;50.956;9.786;2022-10-31T00:33:32;14.30;;;5.97;;
20541;SDS011;10429;50.956;9.786;2022-10-31T00:35:58;12.30;;;6.67;;
20541;SDS011;10429;50.956;9.786;2022-10-31T00:38:24;10.63;;;5.87;;
20541;SDS011;10429;50.956;9.786;2022-10-31T00:40:50;10.53;;;6.80;;
20541;SDS011;10429;50.956;9.786;2022-10-31T00:43:16;9.80;;;5.73;;
20541;SDS011;10429;50.956;9.786;2022-10-31T00:45:42;18.30;;;6.33;;
20541;SDS011;10429;50.956;9.786;2022-10-31T00:48:09;8.53;;;5.27;;
20541;SDS011;10429;50.956;9.786;2022-10-31T00:50:35;11.67;;;5.97;;
20541;SDS011;10429;50.956;9.786;2022-10-31T00:53:01;10.33;;;5.67;;
20541;SDS011;10429;50.956;9.786;2022-10-31T00:55:27;9.67;;;5.80;;
20541;SDS011;10429;50.956;9.786;2022-10-31T00:57:53;11.90;;;6.63;;
20541;SDS011;10429;50.956;9.786;2022-10-31T01:00:19;12.63;;;6.10;;
20541;SDS011;10429;50.956;9.786;2022-10-31T01:02:45;12.03;;;6.77;;
20541;SDS011;10429;50.956;9.786;2022-10-31T01:05:11;14.77;;;6.80;;
20541;SDS011;10429;50.956;9.786;2022-10-31T01:07:40;11.27;;;6.60;;
20541;SDS011;10429;50.956;9.786;2022-10-31T01:10:07;10.13;;;5.63;;
20541;SDS011;10429;50.956;9.786;2022-10-31T01:12:37;11.70;;;6.07;;
20541;SDS011;10429;50.956;9.786;2022-10-31T01:15:04;11.73;;;5.87;;
20541;SDS011;10429;50.956;9.786;2022-10-31T01:17:30;8.33;;;6.10;;
20541;SDS011;10429;50.956;9.786;2022-10-31T01:19:56;11.23;;;5.77;;
20541;SDS011;10429;50.956;9.786;2022-10-31T01:22:22;11.10;;;5.87;;
20541;SDS011;10429;50.956;9.786;2022-10-31T01:24:48;10.07;;;6.50;;
20541;SDS011;10429;50.956;9.786;2022-10-31T01:27:14;14.10;;;5.87;;
20541;SDS011;10429;50.956;9.786;2022-10-31T01:29:40;10.53;;;6.13;;
20541;SDS011;10429;50.956;9.786;2022-10-31T01:32:06;6.33;;;5.07;;
20541;SDS011;10429;50.956;9.786;2022-10-31T01:34:32;9.10;;;5.20;;
20541;SDS011;10429;50.956;9.786;2022-10-31T01:36:58;8.63;;;5.23;;
20541;SDS011;10429;50.956;9.786;2022-10-31T01:39:24;10.07;;;5.40;;
20541;SDS011;10429;50.956;9.786;2022-10-31T01:41:51;9.53;;;5.30;;
20541;SDS011;10429;50.956;9.786;2022-10-31T01:49:13;8.53;;;5.40;;
20541;SDS011;10429;50.956;9.786;2022-10-31T01:51:43;10.10;;;5.67;;
20541;SDS011;10429;50.956;9.786;2022-10-31T01:54:12;11.43;;;5.07;;
20541;SDS011;10429;50.956;9.786;2022-10-31T01:56:39;11.57;;;5.70;;
20541;SDS011;10429;50.956;9.786;2022-10-31T01:59:07;9.00;;;5.57;;
20541;SDS011;10429;50.956;9.786;2022-10-31T02:01:34;10.53;;;5.50;;
20541;SDS011;10429;50.956;9.786;2022-10-31T02:04:01;11.50;;;5.80;;
20541;SDS011;10429;50.956;9.786;2022-10-31T02:06:30;11.07;;;5.87;;
20541;SDS011;10429;50.956;9.786;2022-10-31T02:08:58;9.97;;;6.30;;
20541;SDS011;10429;50.956;9.786;2022-10-31T02:11:27;12.30;;;6.30;;
20541;SDS011;10429;50.956;9.786;2022-10-31T02:13:54;12.03;;;6.17;;
20541;SDS011;10429;50.956;9.786;2022-10-31T02:16:20;12.47;;;5.87;;
20541;SDS011;10429;50.956;9.786;2022-10-31T02:18:46;9.07;;;5.73;;
20541;SDS011;10429;50.956;9.786;2022-10-31T02:21:18;11.67;;;5.57;;
20541;SDS011;10429;50.956;9.786;2022-10-31T02:34:30;9.07;;;4.77;;
20541;SDS011;10429;50.956;9.786;2022-10-31T02:39:48;6.50;;;5.27;;
20541;SDS011;10429;50.956;9.786;2022-10-31T02:47:48;11.50;;;5.50;;
20541;SDS011;10429;50.956;9.786;2022-10-31T02:50:23;8.03;;;4.30;;
20541;SDS011;10429;50.956;9.786;2022-10-31T02:52:51;6.00;;;3.90;;
20541;SDS011;10429;50.956;9.786;2022-10-31T02:57:56;14.30;;;5.37;;
20541;SDS011;10429;50.956;9.786;2022-10-31T03:00:24;8.00;;;4.80;;
20541;SDS011;10429;50.956;9.786;2022-10-31T03:13:12;7.17;;;4.77;;
20541;SDS011;10429;50.956;9.786;2022-10-31T03:15:43;7.70;;;4.70;;
20541;SDS011;10429;50.956;9.786;2022-10-31T03:20:45;9.90;;;4.93;;
20541;SDS011;10429;50.956;9.786;2022-10-31T03:23:14;11.73;;;5.20;;
20541;SDS011;10429;50.956;9.786;2022-10-31T03:25:40;7.17;;;3.87;;
20541;SDS011;10429;50.956;9.786;2022-10-31T03:28:07;8.33;;;4.50;;
20541;SDS011;10429;50.956;9.786;2022-10-31T03:30:35;6.57;;;4.17;;
20541;SDS011;10429;50.956;9.786;2022-10-31T03:33:03;6.57;;;4.23;;
20541;SDS011;10429;50.956;9.786;2022-10-31T03:35:30;9.37;;;4.80;;
20541;SDS011;10429;50.956;9.786;2022-10-31T03:37:58;7.00;;;4.20;;
20541;SDS011;10429;50.956;9.786;2022-10-31T03:40:25;7.77;;;4.50;;
20541;SDS011;10429;50.956;9.786;2022-10-31T03:42:57;9.07;;;4.60;;
20541;SDS011;10429;50.956;9.786;2022-10-31T03:45:24;6.83;;;4.47;;
20541;SDS011;10429;50.956;9.786;2022-10-31T03:47:52;8.37;;;4.60;;
20541;SDS011;10429;50.956;9.786;2022-10-31T03:50:19;11.30;;;4.77;;
20541;SDS011;10429;50.956;9.786;2022-10-31T03:58:15;9.43;;;5.40;;
20541;SDS011;10429;50.956;9.786;2022-10-31T04:00:47;11.00;;;5.60;;
20541;SDS011;10429;50.956;9.786;2022-10-31T04:03:22;7.13;;;5.37;;
20541;SDS011;10429;50.956;9.786;2022-10-31T04:05:52;9.40;;;5.30;;
20541;SDS011;10429;50.956;9.786;2022-10-31T04:08:23;11.53;;;5.77;;
20541;SDS011;10429;50.956;9.786;2022-10-31T04:10:50;6.50;;;5.10;;
20541;SDS011;10429;50.956;9.786;2022-10-31T04:13:19;10.73;;;5.37;;
20541;SDS011;10429;50.956;9.786;2022-10-31T04:15:46;9.33;;;5.17;;
20541;SDS011;10429;50.956;9.786;2022-10-31T04:18:13;11.13;;;5.00;;
20541;SDS011;10429;50.956;9.786;2022-10-31T04:20:41;10.77;;;5.10;;
20541;SDS011;10429;50.956;9.786;2022-10-31T04:23:14;7.07;;;4.60;;
20541;SDS011;10429;50.956;9.786;2022-10-31T04:25:45;7.07;;;4.50;;
20541;SDS011;10429;50.956;9.786;2022-10-31T04:28:12;7.67;;;4.90;;
20541;SDS011;10429;50.956;9.786;2022-10-31T04:30:40;9.37;;;4.83;;
20541;SDS011;10429;50.956;9.786;2022-10-31T04:33:06;7.97;;;5.10;;
20541;SDS011;10429;50.956;9.786;2022-10-31T04:35:32;13.93;;;5.80;;
20541;SDS011;10429;50.956;9.786;2022-10-31T04:37:58;13.17;;;5.50;;
20541;SDS011;10429;50.956;9.786;2022-10-31T04:40:24;10.87;;;5.53;;
20541;SDS011;10429;50.956;9.786;2022-10-31T04:42:50;8.47;;;6.13;;
20541;SDS011;10429;50.956;9.786;2022-10-31T04:45:16;17.87;;;5.90;;
20541;SDS011;10429;50.956;9.786;2022-10-31T04:47:42;8.90;;;5.47;;
20541;SDS011;10429;50.956;9.786;2022-10-31T04:50:09;8.80;;;5.47;;
20541;SDS011;10429;50.956;9.786;2022-10-31T04:52:38;7.83;;;5.00;;
20541;SDS011;10429;50.956;9.786;2022-10-31T04:55:05;7.33;;;5.40;;
20541;SDS011;10429;50.956;9.786;2022-10-31T04:57:31;10.30;;;5.07;;
20541;SDS011;10429;50.956;9.786;2022-10-31T04:59:57;7.47;;;5.43;;
20541;SDS011;10429;50.956;9.786;2022-10-31T05:02:23;11.37;;;5.77;;
20541;SDS011;10429;50.956;9.786;2022-10-31T05:04:49;14.03;;;6.33;;
20541;SDS011;10429;50.956;9.786;2022-10-31T05:07:15;9.33;;;6.30;;
20541;SDS011;10429;50.956;9.786;2022-10-31T05:09:41;8.57;;;5.10;;
20541;SDS011;10429;50.956;9.786;2022-10-31T05:12:07;8.13;;;5.43;;
20541;SDS011;10429;50.956;9.786;2022-10-31T05:14:35;9.83;;;5.00;;
20541;SDS011;10429;50.956;9.786;2022-10-31T05:17:01;9.33;;;5.20;;
20541;SDS011;10429;50.956;9.786;2022-10-31T05:19:29;21.37;;;6.53;;
20541;SDS011;10429;50.956;9.786;2022-10-31T05:21:58;19.70;;;7.73;;
20541;SDS011;10429;50.956;9.786;2022-10-31T05:24:24;25.63;;;7.63;;
20541;SDS011;10429;50.956;9.786;2022-10-31T05:26:50;21.47;;;8.17;;
20541;SDS011;10429;50.956;9.786;2022-10-31T05:29:16;21.30;;;8.20;;
20541;SDS011;10429;50.956;9.786;2022-10-31T05:31:42;29.93;;;8.17;;
20541;SDS011;10429;50.956;9.786;2022-10-31T05:34:08;19.83;;;7.33;;
20541;SDS011;10429;50.956;9.786;2022-10-31T05:36:34;27.57;;;7.47;;
20541;SDS011;10429;50.956;9.786;2022-10-31T05:39:02;27.77;;;6.87;;
20541;SDS011;10429;50.956;9.786;2022-10-31T05:41:28;34.40;;;7.87;;
20541;SDS011;10429;50.956;9.786;2022-10-31T05:43:54;23.57;;;7.77;;
20541;SDS011;10429;50.956;9.786;2022-10-31T05:46:22;24.33;;;8.00;;
20541;SDS011;10429;50.956;9.786;2022-10-31T05:48:48;15.07;;;7.30;;
20541;SDS011;10429;50.956;9.786;2022-10-31T05:51:14;11.80;;;6.50;;
20541;SDS011;10429;50.956;9.786;2022-10-31T05:53:40;28.83;;;7.50;;
20541;SDS011;10429;50.956;9.786;2022-10-31T05:56:06;36.60;;;8.10;;
20541;SDS011;10429;50.956;9.786;2022-10-31T05:58:35;17.97;;;7.70;;
20541;SDS011;10429;50.956;9.786;2022-10-31T06:01:01;24.40;;;7.33;;
20541;SDS011;10429;50.956;9.786;2022-10-31T06:03:27;12.20;;;7.00;;
20541;SDS011;10429;50.956;9.786;2022-10-31T06:05:53;10.97;;;5.93;;
20541;SDS011;10429;50.956;9.786;2022-10-31T06:08:19;9.57;;;5.80;;
20541;SDS011;10429;50.956;9.786;2022-10-31T06:10:47;12.53;;;6.60;;
20541;SDS011;10429;50.956;9.786;2022-10-31T06:13:13;7.43;;;5.13;;
20541;SDS011;10429;50.956;9.786;2022-10-31T06:15:40;9.83;;;5.47;;
20541;SDS011;10429;50.956;9.786;2022-10-31T06:18:07;8.77;;;5.97;;
20541;SDS011;10429;50.956;9.786;2022-10-31T06:20:33;17.53;;;6.03;;
20541;SDS011;10429;50.956;9.786;2022-10-31T06:23:00;8.90;;;5.27;;
20541;SDS011;10429;50.956;9.786;2022-10-31T06:25:26;11.73;;;5.50;;
20541;SDS011;10429;50.956;9.786;2022-10-31T06:27:53;13.93;;;6.10;;
20541;SDS011;10429;50.956;9.786;2022-10-31T06:30:19;17.27;;;6.70;;
20541;SDS011;10429;50.956;9.786;2022-10-31T06:32:45;10.97;;;6.40;;
20541;SDS011;10429;50.956;9.786;2022-10-31T06:35:11;13.53;;;6.00;;
20541;SDS011;10429;50.956;9.786;2022-10-31T06:37:39;18.80;;;7.30;;
20541;SDS011;10429;50.956;9.786;2022-10-31T06:40:05;36.97;;;8.83;;
20541;SDS011;10429;50.956;9.786;2022-10-31T06:42:31;39.73;;;8.30;;
20541;SDS011;10429;50.956;9.786;2022-10-31T06:45:00;40.37;;;8.87;;
20541;SDS011;10429;50.956;9.786;2022-10-31T06:47:26;37.67;;;7.30;;
20541;SDS011;10429;50.956;9.786;2022-10-31T06:49:52;40.97;;;7.93;;
20541;SDS011;10429;50.956;9.786;2022-10-31T06:52:18;26.77;;;6.93;;
20541;SDS011;10429;50.956;9.786;2022-10-31T06:54:47;57.03;;;7.30;;
20541;SDS011;10429;50.956;9.786;2022-10-31T06:57:13;63.10;;;7.97;;
20541;SDS011;10429;50.956;9.786;2022-10-31T06:59:42;63.73;;;8.20;;
20541;SDS011;10429;50.956;9.786;2022-10-31T07:02:11;49.20;;;8.83;;
20541;SDS011;10429;50.956;9.786;2022-10-31T07:04:37;51.13;;;9.40;;
20541;SDS011;10429;50.956;9.786;2022-10-31T07:07:03;68.70;;;9.77;;
20541;SDS011;10429;50.956;9.786;2022-10-31T07:09:29;62.67;;;9.10;;
20541;SDS011;10429;50.956;9.786;2022-10-31T07:11:55;60.43;;;9.70;;
20541;SDS011;10429;50.956;9.786;2022-10-31T07:14:21;63.53;;;8.93;;
20541;SDS011;10429;50.956;9.786;2022-10-31T07:16:50;60.27;;;8.60;;
20541;SDS011;10429;50.956;9.786;2022-10-31T07:19:16;37.30;;;8.80;;
20541;SDS011;10429;50.956;9.786;2022-10-31T07:21:42;47.27;;;7.93;;
20541;SDS011;10429;50.956;9.786;2022-10-31T07:24:08;40.50;;;7.20;;
20541;SDS011;10429;50.956;9.786;2022-10-31T07:26:34;33.43;;;7.27;;
20541;SDS011;10429;50.956;9.786;2022-10-31T07:29:03;18.77;;;7.93;;
20541;SDS011;10429;50.956;9.786;2022-10-31T07:31:29;27.07;;;8.80;;
20541;SDS011;10429;50.956;9.786;2022-10-31T07:33:55;25.27;;;14.77;;
20541;SDS011;10429;50.956;9.786;2022-10-31T07:36:21;11.47;;;9.73;;
20541;SDS011;10429;50.956;9.786;2022-10-31T07:38:50;12.10;;;8.30;;
20541;SDS011;10429;50.956;9.786;2022-10-31T07:41:16;13.17;;;8.33;;
20541;SDS011;10429;50.956;9.786;2022-10-31T07:43:42;13.80;;;8.00;;
20541;SDS011;10429;50.956;9.786;2022-10-31T07:46:08;10.30;;;7.43;;
20541;SDS011;10429;50.956;9.786;2022-10-31T07:48:34;7.77;;;6.50;;
20541;SDS011;10429;50.956;9.786;2022-10-31T07:51:00;10.60;;;7.47;;
20541;SDS011;10429;50.956;9.786;2022-10-31T07:53:26;7.27;;;6.43;;
20541;SDS011;10429;50.956;9.786;2022-10-31T07:55:52;33.93;;;8.10;;
20541;SDS011;10429;50.956;9.786;2022-10-31T07:58:18;9.73;;;6.07;;
20541;SDS011;10429;50.956;9.786;2022-10-31T08:00:45;6.80;;;6.03;;
20541;SDS011;10429;50.956;9.786;2022-10-31T08:03:12;9.10;;;6.30;;
20541;SDS011;10429;50.956;9.786;2022-10-31T08:05:39;6.20;;;5.40;;
20541;SDS011;10429;50.956;9.786;2022-10-31T08:08:06;8.83;;;5.87;;
20541;SDS011;10429;50.956;9.786;2022-10-31T08:10:33;5.97;;;5.37;;
20541;SDS011;10429;50.956;9.786;2022-10-31T08:13:09;8.77;;;5.43;;
20541;SDS011;10429;50.956;9.786;2022-10-31T08:15:35;6.30;;;5.63;;
20541;SDS011;10429;50.956;9.786;2022-10-31T08:18:04;8.13;;;5.77;;
20541;SDS011;10429;50.956;9.786;2022-10-31T08:20:30;6.77;;;5.70;;
20541;SDS011;10429;50.956;9.786;2022-10-31T08:22:58;8.33;;;5.83;;
20541;SDS011;10429;50.956;9.786;2022-10-31T08:25:24;6.97;;;6.27;;
20541;SDS011;10429;50.956;9.786;2022-10-31T08:27:51;8.53;;;6.30;;
20541;SDS011;10429;50.956;9.786;2022-10-31T08:30:18;7.40;;;6.60;;
20541;SDS011;10429;50.956;9.786;2022-10-31T08:32:44;10.87;;;6.83;;
20541;SDS011;10429;50.956;9.786;2022-10-31T08:35:10;8.87;;;5.87;;
20541;SDS011;10429;50.956;9.786;2022-10-31T08:37:36;8.63;;;6.10;;
20541;SDS011;10429;50.956;9.786;2022-10-31T08:40:02;8.87;;;6.83;;
20541;SDS011;10429;50.956;9.786;2022-10-31T08:42:30;6.50;;;5.90;;
20541;SDS011;10429;50.956;9.786;2022-10-31T08:44:56;11.67;;;6.03;;
20541;SDS011;10429;50.956;9.786;2022-10-31T08:47:23;12.70;;;6.80;;
20541;SDS011;10429;50.956;9.786;2022-10-31T08:49:49;9.67;;;6.73;;
20541;SDS011;10429;50.956;9.786;2022-10-31T08:52:15;12.00;;;6.10;;
20541;SDS011;10429;50.956;9.786;2022-10-31T08:54:41;7.63;;;6.30;;
20541;SDS011;10429;50.956;9.786;2022-10-31T08:57:07;6.77;;;5.83;;
20541;SDS011;10429;50.956;9.786;2022-10-31T08:59:32;7.40;;;5.67;;
20541;SDS011;10429;50.956;9.786;2022-10-31T09:01:58;5.30;;;4.77;;
20541;SDS011;10429;50.956;9.786;2022-10-31T09:04:24;6.77;;;4.90;;
20541;SDS011;10429;50.956;9.786;2022-10-31T09:06:50;8.40;;;4.83;;
20541;SDS011;10429;50.956;9.786;2022-10-31T09:09:16;6.90;;;4.93;;
20541;SDS011;10429;50.956;9.786;2022-10-31T09:11:42;5.60;;;5.10;;
20541;SDS011;10429;50.956;9.786;2022-10-31T09:14:08;6.97;;;5.10;;
20541;SDS011;10429;50.956;9.786;2022-10-31T09:16:34;6.37;;;4.70;;
20541;SDS011;10429;50.956;9.786;2022-10-31T09:19:00;5.87;;;4.00;;
20541;SDS011;10429;50.956;9.786;2022-10-31T09:21:26;8.40;;;4.97;;
20541;SDS011;10429;50.956;9.786;2022-10-31T09:23:52;7.10;;;4.47;;
20541;SDS011;10429;50.956;9.786;2022-10-31T09:26:18;5.67;;;5.03;;
20541;SDS011;10429;50.956;9.786;2022-10-31T09:28:45;5.07;;;4.67;;
20541;SDS011;10429;50.956;9.786;2022-10-31T09:31:11;5.50;;;5.00;;
20541;SDS011;10429;50.956;9.786;2022-10-31T09:33:37;6.37;;;4.90;;
20541;SDS011;10429;50.956;9.786;2022-10-31T09:36:03;7.03;;;4.90;;
20541;SDS011;10429;50.956;9.786;2022-10-31T09:38:29;6.23;;;5.30;;
20541;SDS011;10429;50.956;9.786;2022-10-31T09:40:57;7.60;;;5.40;;
20541;SDS011;10429;50.956;9.786;2022-10-31T09:43:43;7.07;;;5.07;;
20541;SDS011;10429;50.956;9.786;2022-10-31T09:51:30;6.23;;;5.30;;
20541;SDS011;10429;50.956;9.786;2022-10-31T09:56:24;9.33;;;5.20;;
20541;SDS011;10429;50.956;9.786;2022-10-31T09:58:52;9.33;;;5.03;;
20541;SDS011;10429;50.956;9.786;2022-10-31T10:03:50;6.60;;;5.40;;
20541;SDS011;10429;50.956;9.786;2022-10-31T10:06:19;7.97;;;6.10;;
20541;SDS011;10429;50.956;9.786;2022-10-31T10:08:46;6.77;;;5.33;;
20541;SDS011;10429;50.956;9.786;2022-10-31T10:11:16;10.63;;;6.87;;
20541;SDS011;10429;50.956;9.786;2022-10-31T10:26:36;7.67;;;6.13;;
20541;SDS011;10429;50.956;9.786;2022-10-31T10:31:47;11.87;;;6.67;;
20541;SDS011;10429;50.956;9.786;2022-10-31T10:34:17;9.70;;;5.93;;
20541;SDS011;10429;50.956;9.786;2022-10-31T10:39:19;11.10;;;7.20;;
20541;SDS011;10429;50.956;9.786;2022-10-31T10:41:47;11.27;;;7.03;;
20541;SDS011;10429;50.956;9.786;2022-10-31T10:44:33;8.50;;;6.23;;
20541;SDS011;10429;50.956;9.786;2022-10-31T10:47:17;10.57;;;6.67;;
20541;SDS011;10429;50.956;9.786;2022-10-31T10:50:02;8.57;;;6.33;;
20541;SDS011;10429;50.956;9.786;2022-10-31T10:57:43;9.80;;;6.87;;
20541;SDS011;10429;50.956;9.786;2022-10-31T11:02:46;11.43;;;6.53;;
20541;SDS011;10429;50.956;9.786;2022-10-31T11:05:30;8.70;;;6.80;;
20541;SDS011;10429;50.956;9.786;2022-10-31T11:07:59;8.47;;;6.43;;
20541;SDS011;10429;50.956;9.786;2022-10-31T11:10:25;10.40;;;6.93;;
20541;SDS011;10429;50.956;9.786;2022-10-31T11:13:05;7.63;;;6.83;;
20541;SDS011;10429;50.956;9.786;2022-10-31T11:15:34;11.63;;;7.83;;
20541;SDS011;10429;50.956;9.786;2022-10-31T11:18:04;10.00;;;7.10;;
20541;SDS011;10429;50.956;9.786;2022-10-31T11:20:32;10.70;;;7.10;;
20541;SDS011;10429;50.956;9.786;2022-10-31T11:23:15;11.73;;;7.43;;
20541;SDS011;10429;50.956;9.786;2022-10-31T11:28:34;9.90;;;7.43;;
20541;SDS011;10429;50.956;9.786;2022-10-31T11:31:21;11.50;;;7.50;;
20541;SDS011;10429;50.956;9.786;2022-10-31T11:33:49;13.20;;;7.40;;
20541;SDS011;10429;50.956;9.786;2022-10-31T11:36:27;12.23;;;7.50;;
20541;SDS011;10429;50.956;9.786;2022-10-31T11:38:54;12.20;;;7.27;;
20541;SDS011;10429;50.956;9.786;2022-10-31T11:47:05;12.50;;;7.50;;
20541;SDS011;10429;50.956;9.786;2022-10-31T11:49:54;15.87;;;8.70;;
20541;SDS011;10429;50.956;9.786;2022-10-31T11:52:05;27.20;;;17.80;;
20541;SDS011;10429;50.956;9.786;2022-10-31T11:57:20;14.07;;;8.23;;
20541;SDS011;10429;50.956;9.786;2022-10-31T11:59:50;19.53;;;9.83;;
20541;SDS011;10429;50.956;9.786;2022-10-31T12:02:17;14.57;;;8.27;;
20541;SDS011;10429;50.956;9.786;2022-10-31T12:04:46;14.70;;;8.80;;
20541;SDS011;10429;50.956;9.786;2022-10-31T12:07:13;11.03;;;8.60;;
20541;SDS011;10429;50.956;9.786;2022-10-31T12:09:39;13.93;;;8.90;;
20541;SDS011;10429;50.956;9.786;2022-10-31T12:30:20;12.57;;;10.20;;
20541;SDS011;10429;50.956;9.786;2022-10-31T12:58:07;15.30;;;10.50;;
20541;SDS011;10429;50.956;9.786;2022-10-31T13:00:35;15.27;;;11.13;;
20541;SDS011;10429;50.956;9.786;2022-10-31T13:03:12;16.73;;;10.67;;
20541;SDS011;10429;50.956;9.786;2022-10-31T13:05:40;120.90;;;19.67;;
20541;SDS011;10429;50.956;9.786;2022-10-31T13:08:11;26.97;;;12.53;;
20541;SDS011;10429;50.956;9.786;2022-10-31T13:11:21;18.07;;;10.63;;
20541;SDS011;10429;50.956;9.786;2022-10-31T13:13:31;14.63;;;9.13;;
20541;SDS011;10429;50.956;9.786;2022-10-31T13:16:00;15.07;;;10.50;;
20541;SDS011;10429;50.956;9.786;2022-10-31T13:18:27;26.53;;;11.03;;
20541;SDS011;10429;50.956;9.786;2022-10-31T13:20:55;15.63;;;10.63;;
20541;SDS011;10429;50.956;9.786;2022-10-31T13:25:53;29.53;;;11.53;;
20541;SDS011;10429;50.956;9.786;2022-10-31T13:28:23;17.43;;;11.17;;
20541;SDS011;10429;50.956;9.786;2022-10-31T13:30:52;15.53;;;10.00;;
20541;SDS011;10429;50.956;9.786;2022-10-31T13:33:37;17.10;;;9.83;;
20541;SDS011;10429;50.956;9.786;2022-10-31T13:36:39;22.90;;;9.93;;
20541;SDS011;10429;50.956;9.786;2022-10-31T13:41:37;22.07;;;11.20;;
20541;SDS011;10429;50.956;9.786;2022-10-31T13:44:15;18.90;;;10.30;;
20541;SDS011;10429;50.956;9.786;2022-10-31T13:46:43;37.27;;;14.57;;
20541;SDS011;10429;50.956;9.786;2022-10-31T13:51:53;19.30;;;11.70;;
20541;SDS011;10429;50.956;9.786;2022-10-31T13:54:34;12.67;;;10.53;;
20541;SDS011;10429;50.956;9.786;2022-10-31T13:57:06;18.63;;;9.93;;
20541;SDS011;10429;50.956;9.786;2022-10-31T13:59:32;17.43;;;10.03;;
20541;SDS011;10429;50.956;9.786;2022-10-31T14:02:00;17.70;;;10.17;;
20541;SDS011;10429;50.956;9.786;2022-10-31T14:07:12;21.83;;;9.60;;
20541;SDS011;10429;50.956;9.786;2022-10-31T14:10:22;12.90;;;9.00;;
20541;SDS011;10429;50.956;9.786;2022-10-31T14:12:38;14.13;;;7.77;;
20541;SDS011;10429;50.956;9.786;2022-10-31T14:15:26;14.77;;;8.93;;
20541;SDS011;10429;50.956;9.786;2022-10-31T14:17:52;19.17;;;8.23;;
20541;SDS011;10429;50.956;9.786;2022-10-31T14:22:45;14.70;;;9.50;;
20541;SDS011;10429;50.956;9.786;2022-10-31T14:25:30;14.37;;;8.53;;
20541;SDS011;10429;50.956;9.786;2022-10-31T14:27:57;14.90;;;9.23;;
20541;SDS011;10429;50.956;9.786;2022-10-31T14:30:25;17.83;;;9.67;;
20541;SDS011;10429;50.956;9.786;2022-10-31T14:32:52;17.83;;;9.70;;
20541;SDS011;10429;50.956;9.786;2022-10-31T14:35:19;16.03;;;10.20;;
20541;SDS011;10429;50.956;9.786;2022-10-31T14:46:04;16.40;;;9.00;;
20541;SDS011;10429;50.956;9.786;2022-10-31T14:51:12;21.43;;;10.53;;
20541;SDS011;10429;50.956;9.786;2022-10-31T14:53:43;16.93;;;10.00;;
20541;SDS011;10429;50.956;9.786;2022-10-31T14:56:10;22.10;;;11.13;;
20541;SDS011;10429;50.956;9.786;2022-10-31T15:01:05;24.73;;;11.80;;
20541;SDS011;10429;50.956;9.786;2022-10-31T15:03:35;24.23;;;12.47;;
20541;SDS011;10429;50.956;9.786;2022-10-31T15:06:04;20.90;;;11.93;;
20541;SDS011;10429;50.956;9.786;2022-10-31T15:08:39;23.47;;;10.40;;
20541;SDS011;10429;50.956;9.786;2022-10-31T15:11:09;16.37;;;10.47;;
20541;SDS011;10429;50.956;9.786;2022-10-31T15:13:40;17.73;;;11.10;;
20541;SDS011;10429;50.956;9.786;2022-10-31T15:16:09;16.67;;;10.80;;
20541;SDS011;10429;50.956;9.786;2022-10-31T15:18:36;24.77;;;16.10;;
20541;SDS011;10429;50.956;9.786;2022-10-31T15:21:05;23.27;;;17.70;;
20541;SDS011;10429;50.956;9.786;2022-10-31T15:23:32;22.57;;;16.07;;
20541;SDS011;10429;50.956;9.786;2022-10-31T15:25:59;20.80;;;14.93;;
20541;SDS011;10429;50.956;9.786;2022-10-31T15:28:25;19.80;;;14.97;;
20541;SDS011;10429;50.956;9.786;2022-10-31T15:30:55;20.33;;;14.17;;
20541;SDS011;10429;50.956;9.786;2022-10-31T15:33:23;17.47;;;11.07;;
20541;SDS011;10429;50.956;9.786;2022-10-31T15:35:57;15.63;;;9.83;;
20541;SDS011;10429;50.956;9.786;2022-10-31T15:38:23;16.23;;;10.07;;
20541;SDS011;10429;50.956;9.786;2022-10-31T15:40:53;18.43;;;10.83;;
20541;SDS011;10429;50.956;9.786;2022-10-31T15:43:20;14.60;;;10.50;;
20541;SDS011;10429;50.956;9.786;2022-10-31T15:45:46;17.03;;;10.63;;
20541;SDS011;10429;50.956;9.786;2022-10-31T15:48:16;13.73;;;9.63;;
20541;SDS011;10429;50.956;9.786;2022-10-31T15:50:52;15.77;;;9.77;;
20541;SDS011;10429;50.956;9.786;2022-10-31T15:56:06;15.60;;;12.40;;
20541;SDS011;10429;50.956;9.786;2022-10-31T15:58:40;21.47;;;12.07;;
20541;SDS011;10429;50.956;9.786;2022-10-31T16:01:22;16.83;;;10.60;;
20541;SDS011;10429;50.956;9.786;2022-10-31T16:04:22;18.40;;;11.10;;
20541;SDS011;10429;50.956;9.786;2022-10-31T16:06:41;15.60;;;11.47;;
20541;SDS011;10429;50.956;9.786;2022-10-31T16:09:18;20.40;;;11.60;;
20541;SDS011;10429;50.956;9.786;2022-10-31T16:11:46;23.80;;;12.30;;
20541;SDS011;10429;50.956;9.786;2022-10-31T16:16:45;17.83;;;11.23;;
20541;SDS011;10429;50.956;9.786;2022-10-31T16:19:21;22.13;;;11.90;;
20541;SDS011;10429;50.956;9.786;2022-10-31T16:21:49;22.13;;;14.43;;
20541;SDS011;10429;50.956;9.786;2022-10-31T16:24:24;21.03;;;13.17;;
20541;SDS011;10429;50.956;9.786;2022-10-31T16:26:51;23.07;;;13.80;;
20541;SDS011;10429;50.956;9.786;2022-10-31T16:29:25;16.53;;;12.20;;
20541;SDS011;10429;50.956;9.786;2022-10-31T16:31:51;19.03;;;12.13;;
20541;SDS011;10429;50.956;9.786;2022-10-31T16:34:20;26.03;;;12.20;;
20541;SDS011;10429;50.956;9.786;2022-10-31T16:36:46;15.97;;;11.47;;
20541;SDS011;10429;50.956;9.786;2022-10-31T16:39:13;17.03;;;10.43;;
20541;SDS011;10429;50.956;9.786;2022-10-31T16:41:46;18.33;;;11.37;;
20541;SDS011;10429;50.956;9.786;2022-10-31T16:44:33;15.40;;;11.37;;
20541;SDS011;10429;50.956;9.786;2022-10-31T16:49:53;19.63;;;11.40;;
20541;SDS011;10429;50.956;9.786;2022-10-31T16:52:24;26.03;;;12.10;;
20541;SDS011;10429;50.956;9.786;2022-10-31T16:54:50;15.57;;;12.03;;
20541;SDS011;10429;50.956;9.786;2022-10-31T16:57:25;19.33;;;12.30;;
20541;SDS011;10429;50.956;9.786;2022-10-31T16:59:53;15.90;;;11.50;;
20541;SDS011;10429;50.956;9.786;2022-10-31T17:02:19;19.67;;;11.93;;
20541;SDS011;10429;50.956;9.786;2022-10-31T17:04:45;22.63;;;14.43;;
20541;SDS011;10429;50.956;9.786;2022-10-31T17:07:11;25.33;;;16.97;;
20541;SDS011;10429;50.956;9.786;2022-10-31T17:09:37;31.33;;;20.33;;
20541;SDS011;10429;50.956;9.786;2022-10-31T17:12:03;29.70;;;22.37;;
20541;SDS011;10429;50.956;9.786;2022-10-31T17:14:29;38.73;;;26.87;;
20541;SDS011;10429;50.956;9.786;2022-10-31T17:16:56;59.17;;;42.80;;
20541;SDS011;10429;50.956;9.786;2022-10-31T17:19:22;63.03;;;46.83;;
20541;SDS011;10429;50.956;9.786;2022-10-31T17:21:48;74.90;;;52.07;;
20541;SDS011;10429;50.956;9.786;2022-10-31T17:24:14;32.97;;;24.40;;
20541;SDS011;10429;50.956;9.786;2022-10-31T17:26:42;34.93;;;24.03;;
20541;SDS011;10429;50.956;9.786;2022-10-31T17:29:08;28.70;;;16.57;;
20541;SDS011;10429;50.956;9.786;2022-10-31T17:31:34;27.00;;;16.33;;
20541;SDS011;10429;50.956;9.786;2022-10-31T17:34:03;22.00;;;15.30;;